Time;durP1;ratioP1;P1;durP2;ratioP2;P2;SDS_P1;SDS_P2;PMS_P1;PMS_P2;Temp;Humidity;BMP_temperature;BMP_pressure;BME280_temperature;BME280_humidity;BME280_pressure;Samples;Min_cycle;Max_cycle;Signal;HPM_P1;HPM_P2
2021/06/23 00:00:33;;;;;;;9.73;8.73;;;18.70;93.90;;;;;;5058845;28;20048;-69
2021/06/23 00:02:58;;;;;;;12.23;8.65;;;18.70;93.90;;;;;;5041304;28;20163;-69
2021/06/23 00:05:25;;;;;;;13.05;8.93;;;18.70;93.90;;;;;;5036929;28;20500;-68
2021/06/23 00:07:51;;;;;;;11.80;9.77;;;18.60;93.80;;;;;;5050685;28;20033;-69
2021/06/23 00:10:17;;;;;;;10.32;9.18;;;18.60;93.90;;;;;;5051570;28;20025;-69
2021/06/23 00:12:44;;;;;;;14.65;10.32;;;18.60;94.00;;;;;;5049316;28;20083;-73
2021/06/23 00:15:12;;;;;;;15.38;11.05;;;18.60;94.10;;;;;;5033809;28;20039;-71
2021/06/23 00:17:38;;;;;;;12.00;9.38;;;18.60;94.20;;;;;;5045464;28;20017;-69
2021/06/23 00:20:06;;;;;;;12.40;9.43;;;18.60;94.40;;;;;;5049621;28;20027;-69
2021/06/23 00:22:32;;;;;;;13.52;9.18;;;18.50;94.10;;;;;;5050973;28;20033;-69
2021/06/23 00:24:57;;;;;;;14.02;8.82;;;18.50;94.10;;;;;;5050326;28;20096;-69
2021/06/23 00:27:23;;;;;;;15.55;9.55;;;18.50;94.20;;;;;;5036463;28;20029;-69
2021/06/23 00:29:49;;;;;;;13.73;9.57;;;18.40;94.10;;;;;;5030326;28;20025;-68
2021/06/23 00:32:15;;;;;;;12.70;9.98;;;18.30;94.10;;;;;;5048270;28;20424;-70
2021/06/23 00:34:41;;;;;;;14.18;10.75;;;18.30;94.40;;;;;;5048307;28;20106;-68
2021/06/23 00:37:07;;;;;;;11.85;9.90;;;18.30;94.40;;;;;;5044489;28;20468;-69
2021/06/23 00:39:33;;;;;;;13.80;10.38;;;18.30;94.50;;;;;;5051265;28;20021;-69
2021/06/23 00:41:58;;;;;;;11.95;9.48;;;18.30;94.70;;;;;;5034172;28;20064;-70
2021/06/23 00:44:24;;;;;;;12.63;9.73;;;18.30;94.50;;;;;;5033680;28;20374;-72
2021/06/23 00:46:50;;;;;;;11.63;9.88;;;18.30;94.60;;;;;;5035693;28;20444;-70
2021/06/23 00:49:16;;;;;;;11.90;9.63;;;18.30;94.60;;;;;;5029918;28;20112;-68
2021/06/23 00:51:42;;;;;;;12.55;9.57;;;18.30;94.60;;;;;;5035726;28;20032;-69
2021/06/23 00:54:13;;;;;;;11.15;9.73;;;18.30;94.70;;;;;;5028371;28;20477;-69
2021/06/23 00:56:40;;;;;;;10.20;9.20;;;18.30;94.80;;;;;;5037188;28;20017;-69
2021/06/23 00:59:09;;;;;;;10.85;9.07;;;18.30;94.80;;;;;;5059895;28;20026;-68
2021/06/23 01:01:38;;;;;;;10.43;7.72;;;18.30;94.90;;;;;;5054178;28;20819;-71
2021/06/23 01:04:04;;;;;;;15.93;7.95;;;18.40;95.00;;;;;;5048355;28;20037;-69
2021/06/23 01:06:32;;;;;;;10.25;7.55;;;18.30;94.80;;;;;;5032242;28;20033;-68
2021/06/23 01:08:57;;;;;;;9.90;7.07;;;18.30;94.80;;;;;;5050699;28;20031;-68
2021/06/23 01:11:23;;;;;;;10.05;7.15;;;18.30;94.80;;;;;;5049575;28;20544;-70
2021/06/23 01:14:05;;;;;;;10.48;6.72;;;18.20;94.80;;;;;;5050130;28;20469;-72
2021/06/23 01:16:35;;;;;;;9.05;7.65;;;18.20;95.00;;;;;;5047152;28;20021;-72
2021/06/23 01:19:01;;;;;;;8.77;7.43;;;18.20;95.10;;;;;;5031173;28;20228;-69
2021/06/23 01:21:27;;;;;;;8.75;7.80;;;18.20;95.10;;;;;;5033165;28;20422;-69
2021/06/23 01:23:53;;;;;;;9.35;7.70;;;18.30;95.20;;;;;;5049363;28;20025;-69
2021/06/23 01:26:19;;;;;;;10.27;7.32;;;18.30;95.30;;;;;;5050057;28;20052;-68
2021/06/23 01:28:45;;;;;;;9.73;6.95;;;18.30;95.50;;;;;;5039431;28;20419;-68
2021/06/23 01:31:11;;;;;;;10.63;7.78;;;18.30;95.30;;;;;;5033188;28;20036;-68
2021/06/23 01:33:37;;;;;;;12.82;8.48;;;18.30;95.30;;;;;;5050399;28;20021;-69
2021/06/23 01:36:03;;;;;;;9.73;7.47;;;18.30;95.30;;;;;;5031511;28;20072;-68
2021/06/23 01:38:29;;;;;;;11.88;8.35;;;18.30;95.60;;;;;;5050181;28;20021;-68
2021/06/23 01:40:55;;;;;;;10.93;8.20;;;18.40;95.40;;;;;;5049373;28;20029;-69
2021/06/23 01:43:21;;;;;;;11.68;8.88;;;18.40;95.40;;;;;;5050288;28;20114;-69
2021/06/23 01:45:47;;;;;;;10.93;9.23;;;18.40;95.40;;;;;;5043523;28;20024;-69
2021/06/23 01:48:18;;;;;;;10.15;8.02;;;18.40;95.40;;;;;;5030480;28;20441;-69
2021/06/23 01:51:01;;;;;;;9.88;8.75;;;18.40;95.40;;;;;;5030412;28;20030;-68
2021/06/23 01:53:29;;;;;;;10.70;8.82;;;18.40;95.40;;;;;;5029976;28;20477;-70
2021/06/23 01:55:55;;;;;;;9.60;8.40;;;18.40;95.40;;;;;;5032676;28;20123;-68
2021/06/23 01:58:22;;;;;;;10.57;8.30;;;18.30;95.40;;;;;;5054968;28;20108;-72
2021/06/23 02:00:54;;;;;;;11.30;7.88;;;18.30;95.40;;;;;;5055557;28;20478;-68
2021/06/23 02:03:47;;;;;;;13.02;9.35;;;18.40;95.50;;;;;;5032748;28;20105;-68
2021/06/23 02:06:51;;;;;;;12.55;10.82;;;18.40;95.50;;;;;;5048664;28;20025;-71
2021/06/23 02:09:41;;;;;;;15.85;11.18;;;18.40;95.50;;;;;;5052443;28;20025;-69
2021/06/23 02:12:24;;;;;;;12.60;10.27;;;18.40;95.50;;;;;;5033879;28;20029;-73
2021/06/23 02:15:02;;;;;;;16.58;11.52;;;18.40;95.50;;;;;;5046979;28;20029;-69
2021/06/23 02:17:30;;;;;;;20.95;12.25;;;18.40;95.50;;;;;;5053564;28;20535;-69
2021/06/23 02:19:57;;;;;;;17.67;11.52;;;18.40;95.50;;;;;;5038743;28;20033;-69
2021/06/23 02:22:30;;;;;;;21.65;13.35;;;18.40;95.40;;;;;;5033929;28;20034;-71
2021/06/23 02:25:12;;;;;;;18.95;12.38;;;18.40;95.40;;;;;;5046605;28;20025;-68
2021/06/23 02:27:42;;;;;;;20.38;13.85;;;18.40;95.40;;;;;;5047871;28;20449;-70
2021/06/23 02:30:10;;;;;;;21.90;15.40;;;18.30;95.40;;;;;;5033497;28;20021;-71
2021/06/23 02:32:38;;;;;;;18.58;13.95;;;18.30;95.50;;;;;;5053202;28;20029;-68
2021/06/23 02:35:07;;;;;;;23.45;15.55;;;18.40;95.50;;;;;;5045792;28;20538;-69
2021/06/23 02:37:33;;;;;;;21.58;14.48;;;18.30;95.40;;;;;;5047957;28;20040;-69
2021/06/23 02:39:59;;;;;;;18.80;13.85;;;18.40;95.40;;;;;;5051507;28;20024;-69
2021/06/23 02:42:25;;;;;;;19.27;14.93;;;18.30;95.40;;;;;;5039595;28;20551;-69
2021/06/23 02:44:51;;;;;;;18.05;14.77;;;18.30;95.40;;;;;;5032406;28;20040;-69
2021/06/23 02:47:19;;;;;;;18.58;13.25;;;18.30;95.40;;;;;;5033039;28;20170;-68
2021/06/23 02:49:46;;;;;;;15.85;11.55;;;18.30;95.40;;;;;;5046735;28;20029;-69
2021/06/23 02:52:12;;;;;;;17.63;13.20;;;18.30;95.40;;;;;;5046808;28;20037;-69
2021/06/23 02:54:40;;;;;;;15.88;12.68;;;18.30;95.40;;;;;;5040901;28;20018;-72
2021/06/23 02:57:06;;;;;;;15.68;12.10;;;18.30;95.40;;;;;;5045454;28;20024;-68
2021/06/23 02:59:34;;;;;;;19.08;12.88;;;18.30;95.40;;;;;;5049650;28;20021;-68
2021/06/23 03:02:00;;;;;;;14.63;11.88;;;18.30;95.30;;;;;;5052087;28;20024;-68
2021/06/23 03:04:25;;;;;;;20.60;12.32;;;18.30;95.30;;;;;;5123232;22;20049;-70
2021/06/23 03:06:51;;;;;;;17.75;12.38;;;18.20;95.30;;;;;;5051903;28;20021;-70
2021/06/23 03:09:16;;;;;;;18.98;14.55;;;18.30;95.40;;;;;;5044276;28;20013;-74
2021/06/23 03:11:43;;;;;;;20.48;13.95;;;18.20;95.40;;;;;;5051856;28;20079;-69
2021/06/23 03:14:09;;;;;;;18.52;13.60;;;18.20;95.40;;;;;;5032963;28;20367;-75
2021/06/23 03:16:36;;;;;;;16.10;13.82;;;18.20;95.40;;;;;;5050769;28;20091;-73
2021/06/23 03:19:02;;;;;;;17.92;12.40;;;18.30;95.40;;;;;;5035363;28;20025;-69
2021/06/23 03:21:28;;;;;;;16.70;13.48;;;18.20;95.30;;;;;;5035445;28;20480;-70
2021/06/23 03:23:54;;;;;;;16.00;12.90;;;18.20;95.30;;;;;;5035184;28;20042;-70
2021/06/23 03:26:21;;;;;;;18.75;12.57;;;18.20;95.40;;;;;;5030446;28;20029;-69
2021/06/23 03:28:47;;;;;;;19.98;12.55;;;18.20;95.40;;;;;;5032526;28;20144;-70
2021/06/23 03:31:14;;;;;;;21.42;14.85;;;18.30;95.40;;;;;;5046142;28;20028;-69
2021/06/23 03:33:40;;;;;;;16.50;14.05;;;18.20;95.30;;;;;;5039207;28;20026;-73
2021/06/23 03:36:06;;;;;;;22.15;14.70;;;18.30;95.40;;;;;;5048447;28;20027;-72
2021/06/23 03:38:33;;;;;;;18.30;13.68;;;18.20;95.40;;;;;;5051802;28;20032;-70
2021/06/23 03:40:58;;;;;;;20.77;13.32;;;18.20;95.40;;;;;;5034584;28;20025;-69
2021/06/23 03:43:24;;;;;;;19.88;14.52;;;18.20;95.40;;;;;;5032089;28;20108;-71
2021/06/23 03:45:49;;;;;;;18.58;14.15;;;18.30;95.40;;;;;;5031056;28;20037;-76
2021/06/23 03:48:15;;;;;;;18.83;13.73;;;18.30;95.40;;;;;;5031669;28;20033;-70
2021/06/23 03:50:44;;;;;;;17.67;13.95;;;18.20;95.40;;;;;;5043944;28;20123;-70
2021/06/23 03:53:11;;;;;;;21.27;16.05;;;18.20;95.50;;;;;;5033965;28;20024;-70
2021/06/23 03:55:36;;;;;;;18.95;14.82;;;18.30;95.50;;;;;;5046170;28;20025;-72
2021/06/23 03:58:02;;;;;;;19.58;14.55;;;18.20;95.50;;;;;;5038690;28;20017;-76
2021/06/23 04:00:29;;;;;;;18.15;14.20;;;18.20;95.50;;;;;;5047855;28;20086;-70
2021/06/23 04:02:55;;;;;;;19.05;14.70;;;18.30;95.60;;;;;;5013732;28;20053;-70
2021/06/23 04:05:21;;;;;;;18.48;13.82;;;18.20;95.50;;;;;;5037501;28;20078;-70
2021/06/23 04:07:47;;;;;;;17.98;14.55;;;18.30;95.60;;;;;;5033726;28;20021;-71
2021/06/23 04:10:13;;;;;;;23.42;14.73;;;18.30;95.60;;;;;;5055411;28;20365;-75
2021/06/23 04:12:39;;;;;;;17.33;13.18;;;18.30;95.60;;;;;;5051363;28;20033;-70
2021/06/23 04:15:08;;;;;;;20.13;15.07;;;18.30;95.50;;;;;;5024346;28;20036;-71
2021/06/23 04:17:33;;;;;;;20.95;13.93;;;18.30;95.50;;;;;;5050674;28;20021;-71
2021/06/23 04:19:59;;;;;;;20.60;13.48;;;18.30;95.50;;;;;;5042767;28;20028;-70
2021/06/23 04:22:26;;;;;;;21.73;15.02;;;18.30;95.50;;;;;;5047435;28;20017;-74
2021/06/23 04:24:52;;;;;;;18.65;15.20;;;18.30;95.50;;;;;;5048975;28;20399;-72
2021/06/23 04:27:19;;;;;;;21.23;15.73;;;18.30;95.50;;;;;;5051099;28;20021;-70
2021/06/23 04:29:45;;;;;;;17.30;14.73;;;18.30;95.40;;;;;;5051636;28;20420;-70
2021/06/23 04:32:10;;;;;;;20.08;14.93;;;18.30;95.40;;;;;;5051255;28;20033;-73
2021/06/23 04:34:36;;;;;;;21.60;14.63;;;18.30;95.50;;;;;;5050547;28;20025;-70
2021/06/23 04:37:02;;;;;;;20.80;15.32;;;18.20;95.50;;;;;;5047729;28;20029;-71
2021/06/23 04:39:27;;;;;;;21.63;14.57;;;18.30;95.50;;;;;;5035665;28;20039;-73
2021/06/23 04:41:53;;;;;;;19.77;14.68;;;18.20;95.50;;;;;;5033512;28;20029;-70
2021/06/23 04:44:19;;;;;;;23.35;16.08;;;18.20;95.60;;;;;;5050219;28;20033;-70
2021/06/23 04:46:44;;;;;;;22.15;16.10;;;18.20;95.50;;;;;;5050984;28;20112;-70
2021/06/23 04:49:10;;;;;;;19.92;16.00;;;18.20;95.50;;;;;;5051001;28;20385;-72
2021/06/23 04:51:35;;;;;;;23.98;15.15;;;18.20;95.40;;;;;;5050824;28;20025;-76
2021/06/23 04:54:01;;;;;;;21.15;15.27;;;18.10;95.40;;;;;;5032239;28;20029;-70
2021/06/23 04:56:27;;;;;;;22.67;17.38;;;18.10;95.40;;;;;;5050938;28;20062;-70
2021/06/23 04:58:52;;;;;;;21.65;16.52;;;18.00;95.40;;;;;;5051129;28;20020;-71
2021/06/23 05:01:18;;;;;;;25.08;17.70;;;18.00;95.40;;;;;;5020696;28;20030;-76
2021/06/23 05:03:43;;;;;;;22.88;17.35;;;17.90;95.40;;;;;;5031167;28;20029;-71
2021/06/23 05:06:09;;;;;;;25.98;18.63;;;18.00;95.50;;;;;;5029956;28;20043;-71
2021/06/23 05:08:35;;;;;;;27.75;19.73;;;17.90;95.50;;;;;;5044069;28;20032;-71
2021/06/23 05:11:01;;;;;;;23.98;18.00;;;17.90;95.50;;;;;;5035590;28;20094;-71
2021/06/23 05:13:26;;;;;;;27.13;18.27;;;17.90;95.50;;;;;;5050890;28;20078;-76
2021/06/23 05:15:54;;;;;;;31.90;19.40;;;17.90;95.60;;;;;;5031716;28;20017;-71
2021/06/23 05:18:20;;;;;;;30.95;18.73;;;17.90;95.60;;;;;;5050363;28;20096;-71
2021/06/23 05:20:46;;;;;;;31.95;19.25;;;17.90;95.60;;;;;;5042046;28;20108;-71
2021/06/23 05:23:12;;;;;;;32.60;20.60;;;17.90;95.70;;;;;;5050527;28;20025;-73
2021/06/23 05:25:38;;;;;;;34.20;20.45;;;18.00;95.80;;;;;;5022982;28;20092;-70
2021/06/23 05:28:03;;;;;;;28.83;20.52;;;18.10;95.80;;;;;;5050304;28;20025;-71
2021/06/23 05:30:29;;;;;;;25.02;18.80;;;18.20;95.90;;;;;;5050727;28;20163;-72
2021/06/23 05:32:55;;;;;;;26.80;19.63;;;18.20;95.70;;;;;;5050530;28;20021;-71
2021/06/23 05:35:20;;;;;;;24.33;18.80;;;18.20;95.70;;;;;;5049275;28;20045;-70
2021/06/23 05:37:46;;;;;;;23.80;18.52;;;18.30;95.70;;;;;;5053393;28;20397;-71
2021/06/23 05:40:13;;;;;;;24.25;18.50;;;18.30;95.70;;;;;;5054737;28;20056;-71
2021/06/23 05:42:39;;;;;;;24.85;17.77;;;18.40;95.70;;;;;;5054684;28;20048;-71
2021/06/23 05:45:06;;;;;;;23.17;18.77;;;18.50;95.80;;;;;;5053588;28;20025;-71
2021/06/23 05:47:31;;;;;;;20.92;17.77;;;18.50;95.70;;;;;;5036571;28;20106;-76
2021/06/23 05:49:57;;;;;;;21.90;16.73;;;18.70;95.60;;;;;;5036565;28;20116;-70
2021/06/23 05:52:22;;;;;;;20.00;15.32;;;18.80;95.60;;;;;;5037684;28;20040;-71
2021/06/23 05:54:48;;;;;;;16.10;14.00;;;18.90;95.50;;;;;;5015581;28;20036;-71
2021/06/23 05:57:14;;;;;;;15.13;13.52;;;19.10;95.40;;;;;;5041891;28;20021;-76
2021/06/23 05:59:39;;;;;;;16.48;12.32;;;19.10;95.40;;;;;;5054448;28;20104;-71
2021/06/23 06:02:05;;;;;;;13.50;12.10;;;19.20;95.30;;;;;;5054439;28;20033;-71
2021/06/23 06:04:30;;;;;;;12.73;11.23;;;19.30;95.20;;;;;;5035130;28;20040;-76
2021/06/23 06:06:56;;;;;;;12.68;10.73;;;19.30;94.90;;;;;;5031452;28;20410;-74
2021/06/23 06:09:22;;;;;;;11.77;9.73;;;19.30;94.60;;;;;;5058820;28;20030;-70
2021/06/23 06:11:47;;;;;;;11.57;10.48;;;19.30;94.70;;;;;;5053409;28;20083;-71
2021/06/23 06:14:13;;;;;;;11.90;10.70;;;19.40;94.80;;;;;;5052792;28;20028;-71
2021/06/23 06:16:39;;;;;;;13.43;10.82;;;19.50;94.70;;;;;;5053711;28;20385;-77
2021/06/23 06:19:04;;;;;;;12.38;10.38;;;19.50;94.90;;;;;;5053842;28;20032;-76
2021/06/23 06:21:30;;;;;;;11.18;9.60;;;19.60;94.50;;;;;;5064168;28;20408;-71
2021/06/23 06:23:55;;;;;;;11.68;9.98;;;19.60;94.40;;;;;;5072611;28;20021;-70
2021/06/23 06:26:21;;;;;;;14.60;12.43;;;19.60;94.30;;;;;;5073822;28;20037;-72
2021/06/23 06:28:47;;;;;;;12.05;10.77;;;19.60;94.20;;;;;;5073725;28;20488;-74
2021/06/23 06:31:13;;;;;;;15.88;12.15;;;19.70;94.20;;;;;;5068248;28;20036;-70
2021/06/23 06:33:38;;;;;;;13.80;10.27;;;19.70;94.10;;;;;;5035709;28;20025;-72
2021/06/23 06:36:05;;;;;;;13.27;10.82;;;19.70;94.00;;;;;;5065223;28;20028;-72
2021/06/23 06:38:31;;;;;;;15.18;10.95;;;19.70;93.90;;;;;;5073374;28;20025;-72
2021/06/23 06:40:56;;;;;;;14.60;12.57;;;19.70;93.80;;;;;;5056761;28;20036;-71
2021/06/23 06:43:22;;;;;;;16.02;11.63;;;19.70;93.80;;;;;;5053593;28;20525;-72
2021/06/23 06:45:50;;;;;;;13.68;12.27;;;19.70;93.80;;;;;;5050663;28;20109;-72
2021/06/23 06:48:18;;;;;;;14.50;12.07;;;19.80;93.90;;;;;;5036994;28;20108;-70
2021/06/23 06:50:44;;;;;;;13.52;11.40;;;19.80;93.60;;;;;;5035271;28;20388;-70
2021/06/23 06:53:09;;;;;;;13.43;10.70;;;19.80;93.60;;;;;;5031195;28;20027;-71
2021/06/23 06:55:35;;;;;;;11.02;9.95;;;19.90;93.70;;;;;;5032249;28;20104;-70
2021/06/23 06:58:01;;;;;;;15.25;10.02;;;19.90;93.50;;;;;;5039966;28;20113;-70
2021/06/23 07:00:26;;;;;;;10.80;9.32;;;19.90;93.40;;;;;;5053378;28;20025;-70
2021/06/23 07:02:54;;;;;;;10.48;9.23;;;20.00;93.50;;;;;;5019797;28;20052;-70
2021/06/23 07:05:19;;;;;;;10.20;8.82;;;20.00;93.50;;;;;;5046712;28;20108;-70
2021/06/23 07:07:45;;;;;;;10.35;8.40;;;20.20;93.30;;;;;;5071175;28;20116;-70
2021/06/23 07:10:11;;;;;;;9.75;8.65;;;20.30;93.30;;;;;;5061604;28;20033;-70
2021/06/23 07:12:37;;;;;;;8.23;7.43;;;20.40;93.10;;;;;;5052841;28;20392;-70
2021/06/23 07:15:03;;;;;;;10.15;7.05;;;20.80;92.90;;;;;;5047281;28;20021;-70
2021/06/23 07:17:29;;;;;;;8.85;7.55;;;21.10;92.60;;;;;;5045229;28;20063;-70
2021/06/23 07:19:55;;;;;;;7.82;7.00;;;21.50;92.40;;;;;;5041567;28;20473;-77
2021/06/23 07:22:22;;;;;;;7.88;6.80;;;21.90;92.10;;;;;;5061032;28;20033;-77
2021/06/23 07:24:47;;;;;;;6.22;5.72;;;22.40;91.60;;;;;;5051990;28;20047;-76
2021/06/23 07:27:13;;;;;;;9.90;6.03;;;22.70;91.30;;;;;;5050590;28;20485;-77
2021/06/23 07:29:38;;;;;;;5.20;4.70;;;23.00;90.80;;;;;;5032986;28;20095;-78
2021/06/23 07:37:15;;;;;;;7.78;4.30;;;24.40;88.60;;;;;;5058217;28;20013;-76
2021/06/23 07:39:41;;;;;;;5.30;4.38;;;24.70;87.30;;;;;;5049485;28;20421;-76
2021/06/23 07:42:08;;;;;;;5.13;4.30;;;24.90;86.10;;;;;;5051790;28;20112;-77
2021/06/23 07:44:48;;;;;;;5.15;4.60;;;24.90;85.90;;;;;;5051384;28;20028;-76
2021/06/23 07:47:19;;;;;;;5.30;4.80;;;24.80;85.10;;;;;;5033954;28;20025;-76
2021/06/23 07:49:46;;;;;;;6.18;4.78;;;24.70;85.00;;;;;;5051443;28;20519;-79
2021/06/23 07:55:09;;;;;;;5.65;4.15;;;24.90;84.20;;;;;;5049320;28;20551;-78
2021/06/23 08:11:38;;;;;;;6.22;3.70;;;24.30;83.10;;;;;;4987685;28;20077;-75
2021/06/23 08:14:05;;;;;;;29.83;24.58;;;24.30;82.90;;;;;;5018576;28;20033;-75
2021/06/23 08:16:32;;;;;;;6.35;4.25;;;24.20;82.70;;;;;;5044825;28;20017;-76
2021/06/23 08:18:58;;;;;;;4.20;3.78;;;24.10;82.60;;;;;;5021680;28;20056;-75
2021/06/23 08:21:23;;;;;;;3.13;2.83;;;24.10;82.20;;;;;;5028414;28;20056;-76
2021/06/23 08:23:49;;;;;;;2.80;2.60;;;23.90;81.40;;;;;;5050980;28;20108;-74
2021/06/23 08:26:15;;;;;;;3.22;2.92;;;23.60;81.10;;;;;;5045866;28;20472;-75
2021/06/23 08:28:41;;;;;;;2.85;2.65;;;23.40;81.10;;;;;;5022234;28;20091;-76
2021/06/23 08:31:06;;;;;;;3.80;2.70;;;23.20;81.20;;;;;;5044081;28;20028;-76
2021/06/23 08:33:32;;;;;;;3.20;2.83;;;23.20;81.40;;;;;;5040386;28;20378;-76
2021/06/23 08:35:58;;;;;;;3.95;3.25;;;23.10;81.60;;;;;;5046317;28;20060;-76
2021/06/23 08:38:23;;;;;;;3.25;2.97;;;23.00;81.40;;;;;;5049814;28;20448;-76
2021/06/23 08:40:50;;;;;;;3.45;3.15;;;22.90;81.30;;;;;;5048306;28;20082;-75
2021/06/23 08:43:17;;;;;;;4.57;3.47;;;22.90;81.60;;;;;;5039643;28;20029;-70
2021/06/23 08:45:43;;;;;;;5.22;3.10;;;22.80;81.50;;;;;;5052984;28;20029;-67
2021/06/23 08:48:10;;;;;;;5.10;3.30;;;22.80;81.90;;;;;;5051115;28;20021;-67
2021/06/23 08:50:36;;;;;;;3.58;3.28;;;22.70;81.90;;;;;;5054696;28;20025;-69
2021/06/23 08:53:02;;;;;;;4.93;3.97;;;22.60;82.00;;;;;;5054622;28;20055;-70
2021/06/23 08:55:27;;;;;;;5.82;3.03;;;22.50;81.90;;;;;;5041274;28;20033;-70
2021/06/23 08:57:53;;;;;;;6.13;3.35;;;22.50;82.30;;;;;;5037962;28;20017;-68
2021/06/23 09:00:21;;;;;;;5.97;3.72;;;23.10;81.70;;;;;;5019924;28;20528;-71
2021/06/23 09:02:48;;;;;;;3.50;3.20;;;23.00;81.30;;;;;;5047713;28;20132;-70
2021/06/23 09:07:56;;;;;;;5.05;3.20;;;22.70;82.00;;;;;;5048796;28;20079;-69
2021/06/23 09:10:21;;;;;;;3.17;2.85;;;22.60;81.50;;;;;;5049126;28;20044;-68
2021/06/23 09:13:08;;;;;;;4.00;2.70;;;22.40;82.20;;;;;;5047900;28;20098;-68
2021/06/23 09:16:00;;;;;;;4.40;2.80;;;22.30;82.70;;;;;;5048987;28;20052;-68
2021/06/23 09:18:36;;;;;;;5.70;2.70;;;22.20;82.90;;;;;;5048570;28;20064;-69
2021/06/23 09:21:11;;;;;;;7.22;2.90;;;22.20;83.20;;;;;;5065741;28;20033;-68
2021/06/23 09:23:43;;;;;;;2.85;2.50;;;22.10;83.70;;;;;;5048999;28;20056;-68
2021/06/23 09:26:13;;;;;;;2.55;2.33;;;22.20;84.10;;;;;;5047901;28;20037;-71
2021/06/23 09:28:39;;;;;;;2.22;2.13;;;22.20;83.90;;;;;;5049128;28;20033;-70
2021/06/23 09:31:06;;;;;;;4.25;2.17;;;22.30;84.00;;;;;;5050185;28;20017;-71
2021/06/23 09:33:33;;;;;;;2.95;2.40;;;22.40;84.00;;;;;;5050374;28;20013;-70
2021/06/23 09:36:01;;;;;;;2.35;2.20;;;22.50;84.00;;;;;;5047549;28;20017;-70
2021/06/23 09:38:37;;;;;;;3.38;2.10;;;22.60;83.70;;;;;;5049786;28;20025;-71
2021/06/23 09:41:27;;;;;;;1.80;1.70;;;22.70;83.40;;;;;;5048976;28;20048;-71
2021/06/23 09:44:01;;;;;;;1.98;1.63;;;22.70;83.90;;;;;;5038252;28;20040;-71
2021/06/23 09:46:41;;;;;;;1.83;1.73;;;22.80;83.70;;;;;;5050169;28;20078;-70
2021/06/23 09:49:15;;;;;;;1.80;1.60;;;22.90;83.40;;;;;;5050094;28;20025;-71
2021/06/23 09:51:50;;;;;;;1.52;1.40;;;23.60;82.10;;;;;;5049995;28;20032;-71
2021/06/23 09:54:19;;;;;;;1.92;1.48;;;24.90;80.00;;;;;;5049231;28;20465;-71
2021/06/23 09:56:46;;;;;;;1.33;1.25;;;24.50;80.70;;;;;;5050019;28;20021;-71
2021/06/23 09:59:37;;;;;;;1.55;1.45;;;24.40;80.80;;;;;;5050105;28;20021;-71
2021/06/23 10:02:04;;;;;;;1.50;1.40;;;24.30;80.40;;;;;;5048815;28;20036;-71
2021/06/23 10:04:35;;;;;;;1.50;1.40;;;24.30;80.80;;;;;;5048729;28;20029;-71
2021/06/23 10:07:02;;;;;;;1.27;1.17;;;24.60;79.90;;;;;;5047936;28;20064;-71
2021/06/23 10:09:29;;;;;;;3.78;1.40;;;25.50;79.00;;;;;;5049422;28;20025;-71
2021/06/23 10:12:15;;;;;;;3.38;1.60;;;25.40;78.70;;;;;;5050059;28;20053;-71
2021/06/23 10:14:45;;;;;;;1.30;1.30;;;25.40;78.00;;;;;;5049109;28;20079;-71
2021/06/23 10:17:12;;;;;;;1.95;1.35;;;25.90;77.80;;;;;;5050218;28;20370;-71
2021/06/23 10:19:38;;;;;;;2.45;1.20;;;26.50;77.50;;;;;;5050160;28;20458;-71
2021/06/23 10:22:09;;;;;;;1.00;1.00;;;27.10;76.90;;;;;;5051278;28;20094;-71
2021/06/23 10:24:35;;;;;;;1.98;0.90;;;27.70;75.90;;;;;;5051624;28;20055;-72
2021/06/23 10:27:07;;;;;;;0.90;0.90;;;28.10;74.80;;;;;;5050297;28;20033;-71
2021/06/23 10:29:34;;;;;;;1.55;0.60;;;28.50;73.00;;;;;;5051764;28;20079;-71
2021/06/23 10:32:03;;;;;;;0.70;0.70;;;28.80;71.70;;;;;;5054142;28;20031;-72
2021/06/23 10:34:29;;;;;;;2.00;0.65;;;29.00;70.20;;;;;;5052305;28;20028;-71
2021/06/23 10:36:56;;;;;;;1.85;0.60;;;29.10;68.30;;;;;;5053544;28;20019;-72
2021/06/23 10:39:23;;;;;;;0.57;0.57;;;29.20;65.60;;;;;;5052509;28;20037;-72
2021/06/23 10:41:56;;;;;;;1.55;0.77;;;29.20;65.90;;;;;;5053263;28;20100;-72
2021/06/23 10:44:36;;;;;;;1.70;0.93;;;29.30;63.90;;;;;;5052360;28;20166;-72
2021/06/23 10:47:08;;;;;;;1.88;0.90;;;29.30;63.30;;;;;;5050188;28;20430;-72
2021/06/23 10:49:39;;;;;;;;;;;29.30;62.30;;;;;;5050721;28;20029;-71
2021/06/23 10:52:19;;;;;;;2.67;0.70;;;29.30;66.20;;;;;;5053208;28;19913;-69
2021/06/23 10:54:48;;;;;;;1.75;0.70;;;29.20;64.40;;;;;;5067600;28;20060;-71
2021/06/23 10:57:26;;;;;;;0.85;0.65;;;29.10;63.50;;;;;;5053217;28;20021;-72
2021/06/23 10:59:56;;;;;;;0.77;0.70;;;29.10;62.20;;;;;;5033495;28;20113;-72
2021/06/23 11:02:34;;;;;;;1.42;0.80;;;29.10;62.10;;;;;;5032319;28;20112;-72
2021/06/23 11:05:05;;;;;;;1.92;0.63;;;29.00;60.70;;;;;;5047403;28;20388;-71
2021/06/23 11:07:36;;;;;;;0.77;0.77;;;28.80;61.10;;;;;;5044133;28;20501;-72
2021/06/23 11:10:18;;;;;;;1.80;0.60;;;28.70;61.70;;;;;;5048405;28;20037;-71
2021/06/23 11:12:46;;;;;;;0.95;0.60;;;28.60;62.50;;;;;;5032925;28;20022;-71
2021/06/23 11:15:18;;;;;;;5.57;0.68;;;28.60;62.00;;;;;;5052330;28;20463;-72
2021/06/23 11:17:45;;;;;;;3.40;0.60;;;28.60;60.30;;;;;;5052626;28;20027;-71
2021/06/23 11:20:20;;;;;;;0.60;0.60;;;28.50;60.90;;;;;;5051325;28;20025;-72
2021/06/23 11:22:49;;;;;;;1.88;0.60;;;28.50;60.10;;;;;;5061637;28;20386;-72
2021/06/23 11:25:24;;;;;;;3.75;0.80;;;28.40;60.90;;;;;;5063450;28;20079;-71
2021/06/23 11:28:08;;;;;;;1.55;0.70;;;28.40;59.90;;;;;;5041776;28;20139;-71
2021/06/23 11:30:35;;;;;;;1.48;0.45;;;28.40;59.90;;;;;;5052472;28;20071;-71
2021/06/23 11:33:30;;;;;;;0.88;0.60;;;28.30;60.10;;;;;;5051377;28;20087;-71
2021/06/23 11:36:08;;;;;;;1.25;0.65;;;28.30;59.70;;;;;;5036594;28;20036;-71
2021/06/23 11:38:34;;;;;;;1.40;0.80;;;28.30;59.80;;;;;;5052102;28;20412;-72
2021/06/23 11:41:02;;;;;;;0.65;0.63;;;28.30;60.00;;;;;;5051909;28;20021;-71
2021/06/23 11:43:28;;;;;;;0.88;0.80;;;28.20;60.00;;;;;;5067553;28;20028;-72
2021/06/23 11:45:54;;;;;;;0.52;0.52;;;28.10;59.80;;;;;;5051178;28;20025;-71
2021/06/23 11:48:20;;;;;;;0.77;0.70;;;28.10;60.40;;;;;;5051861;28;20391;-71
2021/06/23 11:50:47;;;;;;;1.25;0.70;;;28.20;60.30;;;;;;5051852;28;20018;-71
2021/06/23 11:53:15;;;;;;;1.13;0.73;;;28.30;59.40;;;;;;5052041;28;20035;-72
2021/06/23 11:55:41;;;;;;;1.27;0.70;;;28.40;59.90;;;;;;5049505;28;20032;-71
2021/06/23 11:58:07;;;;;;;1.13;0.80;;;28.40;60.10;;;;;;5050181;28;20087;-69
2021/06/23 12:00:35;;;;;;;0.70;0.70;;;28.40;60.00;;;;;;5051727;28;20060;-70
2021/06/23 12:03:02;;;;;;;1.10;0.63;;;28.20;59.50;;;;;;5051749;28;20032;-69
2021/06/23 12:05:29;;;;;;;0.95;0.80;;;28.10;59.90;;;;;;5041196;28;20025;-70
2021/06/23 12:07:56;;;;;;;0.80;0.80;;;28.00;60.50;;;;;;5048992;28;20044;-70
2021/06/23 12:10:25;;;;;;;0.77;0.70;;;28.10;60.70;;;;;;5050930;28;20047;-69
2021/06/23 12:12:51;;;;;;;2.80;0.80;;;28.20;60.10;;;;;;5051544;28;20588;-69
2021/06/23 12:15:20;;;;;;;0.80;0.80;;;28.30;60.40;;;;;;5048973;28;20491;-69
2021/06/23 12:17:48;;;;;;;2.50;0.80;;;28.30;60.70;;;;;;5051188;28;20021;-69
2021/06/23 12:20:14;;;;;;;0.93;0.77;;;28.30;60.90;;;;;;5050372;28;20021;-69
2021/06/23 12:22:40;;;;;;;0.57;0.57;;;28.20;60.10;;;;;;5032171;28;20508;-69
2021/06/23 12:25:09;;;;;;;0.75;0.75;;;27.90;59.80;;;;;;5049921;28;20032;-69
2021/06/23 12:27:35;;;;;;;1.50;0.73;;;27.70;59.50;;;;;;5045885;28;20021;-69
2021/06/23 12:30:02;;;;;;;2.10;1.60;;;27.50;60.30;;;;;;5049681;28;20051;-69
2021/06/23 12:32:28;;;;;;;1.25;0.90;;;27.60;61.60;;;;;;5050577;28;20021;-69
2021/06/23 12:34:53;;;;;;;0.80;0.80;;;27.50;61.60;;;;;;5047295;28;20017;-69
2021/06/23 12:37:19;;;;;;;4.50;1.27;;;27.40;61.50;;;;;;5050693;28;20108;-69
2021/06/23 12:39:45;;;;;;;0.70;0.70;;;27.10;61.10;;;;;;5051253;28;20048;-69
2021/06/23 12:42:11;;;;;;;1.20;1.10;;;26.90;61.10;;;;;;5050011;28;20388;-69
2021/06/23 12:44:37;;;;;;;1.10;0.95;;;26.70;61.60;;;;;;5050132;28;20512;-69
2021/06/23 12:47:04;;;;;;;2.90;1.10;;;26.70;63.10;;;;;;5050951;28;20024;-69
2021/06/23 12:49:31;;;;;;;1.10;1.02;;;26.70;63.40;;;;;;5051034;28;20052;-69
2021/06/23 12:51:58;;;;;;;2.45;1.17;;;26.60;63.40;;;;;;5044251;28;20021;-69
2021/06/23 12:54:23;;;;;;;1.15;1.13;;;26.70;63.40;;;;;;5064442;28;20468;-69
2021/06/23 12:56:49;;;;;;;1.00;1.00;;;26.70;63.40;;;;;;5057889;28;20050;-70
2021/06/23 12:59:15;;;;;;;1.45;0.90;;;26.70;63.90;;;;;;5050858;28;20075;-70
2021/06/23 13:01:40;;;;;;;1.15;1.10;;;26.80;64.70;;;;;;5050718;28;20033;-69
2021/06/23 13:04:06;;;;;;;3.28;1.10;;;26.80;64.50;;;;;;5049865;28;20414;-69
2021/06/23 13:06:32;;;;;;;1.15;1.05;;;26.80;63.40;;;;;;5049940;28;20040;-69